Time;durP1;ratioP1;P1;durP2;ratioP2;P2;SDS_P1;SDS_P2;PMS_P1;PMS_P2;Temp;Humidity;BMP_temperature;BMP_pressure;BME280_temperature;BME280_humidity;BME280_pressure;Samples;Min_cycle;Max_cycle;Signal;HPM_P1;HPM_P2
2023/01/24 00:01:19;;;;;;;9.18;5.05;;;7.20;89.50;;;;;;7349151;19;20629;-73
2023/01/24 00:03:45;;;;;;;6.93;3.70;;;7.20;89.40;;;;;;7404500;19;19960;-73
2023/01/24 00:06:12;;;;;;;9.23;4.43;;;7.10;89.00;;;;;;7403833;19;19910;-72
2023/01/24 00:08:37;;;;;;;8.63;4.45;;;7.00;89.00;;;;;;7401152;19;20258;-73
2023/01/24 00:11:06;;;;;;;9.43;3.83;;;7.10;88.60;;;;;;7400288;19;19919;-73
2023/01/24 00:13:34;;;;;;;7.22;3.35;;;7.10;88.00;;;;;;7402096;19;19915;-75
2023/01/24 00:16:14;;;;;;;7.43;3.63;;;7.10;87.70;;;;;;7402356;19;19915;-73
2023/01/24 00:18:39;;;;;;;6.53;3.25;;;7.00;87.50;;;;;;7400652;19;20484;-72
2023/01/24 00:21:14;;;;;;;7.57;3.67;;;7.10;87.40;;;;;;7399702;19;19926;-74
2023/01/24 00:23:42;;;;;;;9.13;3.67;;;7.10;87.40;;;;;;7403688;19;19938;-75
2023/01/24 00:26:08;;;;;;;8.32;3.45;;;7.20;87.20;;;;;;7400325;19;19915;-75
2023/01/24 00:28:34;;;;;;;8.35;4.15;;;7.10;87.00;;;;;;7402715;19;20382;-74
2023/01/24 00:31:01;;;;;;;7.47;3.85;;;7.10;87.20;;;;;;7400377;19;19918;-73
2023/01/24 00:33:26;;;;;;;8.57;3.92;;;7.10;87.30;;;;;;7402247;19;19938;-74
2023/01/24 00:35:52;;;;;;;7.80;4.25;;;7.00;87.50;;;;;;7401928;19;20334;-75
2023/01/24 00:38:21;;;;;;;11.02;3.97;;;7.00;87.80;;;;;;7400626;19;20464;-74
2023/01/24 00:40:47;;;;;;;9.57;3.67;;;7.00;87.90;;;;;;7402084;19;19932;-74
2023/01/24 00:43:13;;;;;;;7.65;3.17;;;6.90;88.10;;;;;;7399258;19;19950;-74
2023/01/24 00:45:39;;;;;;;6.70;2.80;;;6.90;88.10;;;;;;7402101;19;19989;-74
2023/01/24 00:48:07;;;;;;;7.03;3.40;;;6.90;88.20;;;;;;7398419;19;19917;-74
2023/01/24 00:50:33;;;;;;;6.47;3.15;;;6.90;88.20;;;;;;7400723;19;19924;-75
2023/01/24 00:53:00;;;;;;;6.93;3.75;;;6.90;88.10;;;;;;7401837;19;19929;-75
2023/01/24 00:55:26;;;;;;;8.05;3.10;;;6.80;88.20;;;;;;7400260;19;19918;-74
2023/01/24 00:57:52;;;;;;;6.85;3.10;;;6.80;88.20;;;;;;7405583;19;19990;-74
2023/01/24 01:00:20;;;;;;;5.65;2.63;;;6.80;88.30;;;;;;7408428;19;19919;-74
2023/01/24 01:02:46;;;;;;;7.47;3.00;;;6.80;88.10;;;;;;7410777;19;19906;-75
2023/01/24 01:05:12;;;;;;;6.55;2.78;;;6.80;88.10;;;;;;7410113;19;19914;-74
2023/01/24 01:07:38;;;;;;;6.50;2.63;;;6.80;88.20;;;;;;7375045;19;19918;-74
2023/01/24 01:10:04;;;;;;;6.43;2.80;;;6.80;88.10;;;;;;7408045;19;19930;-74
2023/01/24 01:12:30;;;;;;;5.53;2.75;;;6.70;88.00;;;;;;7409598;19;19910;-73
2023/01/24 01:14:55;;;;;;;8.98;3.00;;;6.70;88.00;;;;;;7411885;19;20266;-75
2023/01/24 01:17:21;;;;;;;5.88;3.00;;;6.60;88.30;;;;;;7406056;19;21118;-75
2023/01/24 01:19:51;;;;;;;6.28;2.97;;;6.70;88.30;;;;;;7411302;19;19975;-74
2023/01/24 01:22:17;;;;;;;6.47;3.13;;;6.70;88.20;;;;;;7408189;19;19911;-74
2023/01/24 01:24:43;;;;;;;5.63;2.75;;;6.60;88.30;;;;;;7411320;19;19911;-75
2023/01/24 01:27:09;;;;;;;5.20;2.63;;;6.50;88.20;;;;;;7405076;19;19990;-75
2023/01/24 01:29:35;;;;;;;6.93;2.40;;;6.60;88.20;;;;;;7410342;19;20250;-74
2023/01/24 01:32:03;;;;;;;4.88;2.00;;;6.50;88.50;;;;;;7413079;19;19922;-75
2023/01/24 01:34:29;;;;;;;6.97;2.83;;;6.50;88.80;;;;;;7411599;19;19914;-75
2023/01/24 01:36:55;;;;;;;5.30;2.65;;;6.50;89.20;;;;;;7408999;19;19916;-74
2023/01/24 01:39:20;;;;;;;8.43;2.53;;;6.40;89.80;;;;;;7409540;19;19924;-74
2023/01/24 01:41:46;;;;;;;5.28;2.58;;;6.30;89.40;;;;;;7404441;19;19921;-74
2023/01/24 01:44:40;;;;;;;7.35;2.55;;;6.30;89.60;;;;;;7377324;19;19929;-73
2023/01/24 01:47:24;;;;;;;5.30;2.22;;;6.20;89.80;;;;;;7405291;19;19937;-75
2023/01/24 01:50:03;;;;;;;5.43;2.50;;;6.30;90.00;;;;;;7408162;19;19915;-74
2023/01/24 01:52:38;;;;;;;6.05;2.72;;;6.30;89.70;;;;;;7378208;19;19925;-74
2023/01/24 01:55:14;;;;;;;6.65;3.03;;;6.20;89.50;;;;;;7407887;19;19920;-74
2023/01/24 01:57:41;;;;;;;5.30;2.47;;;6.20;89.50;;;;;;7411071;19;19914;-75
2023/01/24 02:00:18;;;;;;;6.72;3.20;;;6.20;89.40;;;;;;7406146;19;19910;-74
2023/01/24 02:02:50;;;;;;;11.73;2.58;;;6.10;89.50;;;;;;7409251;19;19910;-74
2023/01/24 02:05:20;;;;;;;11.60;2.72;;;6.20;89.40;;;;;;7404790;19;19964;-73
2023/01/24 02:07:51;;;;;;;7.50;2.90;;;6.20;89.50;;;;;;7408425;19;19930;-75
2023/01/24 02:10:22;;;;;;;8.38;3.42;;;6.20;89.40;;;;;;7403269;19;19915;-74
2023/01/24 02:12:52;;;;;;;6.05;2.97;;;6.20;89.40;;;;;;7384283;19;19921;-74
2023/01/24 02:18:09;;;;;;;7.55;3.25;;;6.10;89.50;;;;;;7404106;19;19925;-74
2023/01/24 02:20:41;;;;;;;6.45;2.60;;;6.10;89.50;;;;;;7405613;19;19923;-75
2023/01/24 02:23:40;;;;;;;5.47;2.50;;;6.20;89.30;;;;;;7368897;19;19978;-74
2023/01/24 02:26:16;;;;;;;4.70;2.05;;;6.20;89.40;;;;;;7405396;19;19922;-74
2023/01/24 02:29:04;;;;;;;7.20;2.53;;;6.20;89.40;;;;;;7404792;19;19927;-75
2023/01/24 02:31:54;;;;;;;6.15;2.42;;;6.10;89.30;;;;;;7401440;19;19918;-74
2023/01/24 02:34:20;;;;;;;5.95;2.45;;;6.10;89.60;;;;;;7401683;19;19948;-73
2023/01/24 02:36:52;;;;;;;4.88;2.25;;;6.10;89.60;;;;;;7407057;19;19926;-74
2023/01/24 02:39:23;;;;;;;9.18;2.63;;;6.00;89.80;;;;;;7402859;19;20248;-75
2023/01/24 02:42:13;;;;;;;5.43;2.72;;;6.00;89.90;;;;;;7406438;19;20362;-74
2023/01/24 02:45:01;;;;;;;6.20;2.92;;;6.10;89.80;;;;;;7404052;19;19925;-74
2023/01/24 02:47:32;;;;;;;8.18;2.78;;;6.10;89.70;;;;;;7403335;19;20289;-75
2023/01/24 02:50:01;;;;;;;7.22;2.95;;;6.10;89.60;;;;;;7408584;19;19946;-74
2023/01/24 02:55:14;;;;;;;6.93;3.00;;;6.10;89.70;;;;;;7404796;19;19931;-74
2023/01/24 03:00:24;;;;;;;9.43;2.70;;;6.00;90.00;;;;;;7406454;19;19936;-74
2023/01/24 03:02:50;;;;;;;5.82;2.63;;;6.00;90.00;;;;;;7400590;19;19914;-74
2023/01/24 03:05:16;;;;;;;6.22;2.95;;;6.00;90.00;;;;;;7405257;19;19959;-74
2023/01/24 03:07:44;;;;;;;6.38;3.08;;;6.00;90.00;;;;;;7371159;19;19990;-74
2023/01/24 03:10:15;;;;;;;5.72;3.22;;;6.10;90.10;;;;;;7400949;19;19927;-73
2023/01/24 03:34:49;;;;;;;6.43;3.40;;;6.00;90.10;;;;;;7404178;19;19937;-74
2023/01/24 03:40:12;;;;;;;6.07;3.03;;;6.00;90.10;;;;;;7404986;19;20243;-74
2023/01/24 03:42:48;;;;;;;5.63;2.60;;;6.10;90.10;;;;;;7406277;19;19927;-73
2023/01/24 03:45:17;;;;;;;7.05;2.35;;;6.10;90.10;;;;;;7403845;19;19919;-74
2023/01/24 03:48:04;;;;;;;5.40;2.03;;;6.00;90.10;;;;;;7406931;19;20286;-74
2023/01/24 03:53:21;;;;;;;5.43;2.80;;;5.90;90.20;;;;;;7404596;19;19931;-74
2023/01/24 03:55:52;;;;;;;8.98;3.38;;;5.90;90.30;;;;;;7382518;19;20465;-73
2023/01/24 03:58:18;;;;;;;6.70;3.25;;;5.80;90.20;;;;;;7405288;19;20304;-75
2023/01/24 04:00:43;;;;;;;7.00;3.40;;;5.80;90.30;;;;;;7405356;19;19948;-74
2023/01/24 04:03:09;;;;;;;7.45;2.85;;;5.70;90.30;;;;;;7401427;19;19922;-73
2023/01/24 04:05:36;;;;;;;9.00;3.47;;;5.60;90.50;;;;;;7403780;19;19918;-75
2023/01/24 04:08:02;;;;;;;6.22;3.10;;;5.60;90.50;;;;;;7402562;19;19914;-75
2023/01/24 04:10:29;;;;;;;8.95;3.45;;;5.60;90.60;;;;;;7404490;19;19918;-74
2023/01/24 04:12:55;;;;;;;9.73;3.15;;;5.60;90.60;;;;;;7403794;19;19923;-74
2023/01/24 04:15:28;;;;;;;6.20;2.83;;;5.50;90.70;;;;;;7404103;19;19929;-74
2023/01/24 04:17:59;;;;;;;7.90;2.75;;;5.50;90.80;;;;;;7402982;19;19923;-74
2023/01/24 04:20:27;;;;;;;6.38;2.50;;;5.40;91.10;;;;;;7404213;19;19925;-74
2023/01/24 04:22:53;;;;;;;5.78;2.42;;;5.40;91.30;;;;;;7405193;19;20269;-74
2023/01/24 04:25:18;;;;;;;5.72;2.97;;;5.40;91.50;;;;;;7404115;19;19925;-74
2023/01/24 04:27:44;;;;;;;6.88;3.35;;;5.30;92.00;;;;;;7406044;19;19999;-73
2023/01/24 04:30:12;;;;;;;7.32;2.85;;;5.40;91.90;;;;;;7404205;19;19932;-74
2023/01/24 04:32:38;;;;;;;6.93;3.45;;;5.30;92.10;;;;;;7407235;19;19929;-74
2023/01/24 04:35:05;;;;;;;8.00;3.03;;;5.30;92.10;;;;;;7409705;19;20009;-74
2023/01/24 04:37:32;;;;;;;5.72;2.75;;;5.30;92.00;;;;;;7408987;19;19961;-73
2023/01/24 04:39:58;;;;;;;8.13;3.03;;;5.20;92.10;;;;;;7410097;19;20331;-74
2023/01/24 04:42:24;;;;;;;6.47;3.05;;;5.30;92.60;;;;;;7409202;19;19938;-75
2023/01/24 04:44:50;;;;;;;7.38;3.58;;;5.30;91.90;;;;;;7409019;19;19943;-75
2023/01/24 04:47:15;;;;;;;7.57;3.08;;;5.40;91.80;;;;;;7407420;19;20275;-74
2023/01/24 04:49:41;;;;;;;7.40;3.75;;;5.40;92.00;;;;;;7408911;19;19918;-74
2023/01/24 04:52:12;;;;;;;7.55;3.35;;;5.40;92.50;;;;;;7407008;19;19939;-75
2023/01/24 04:54:39;;;;;;;7.47;3.40;;;5.10;93.60;;;;;;7410034;19;19938;-73
2023/01/24 04:57:06;;;;;;;7.20;3.40;;;5.00;95.20;;;;;;7407334;19;19934;-74
2023/01/24 04:59:32;;;;;;;7.50;3.28;;;4.80;95.60;;;;;;7408017;19;19911;-75
2023/01/24 05:01:57;;;;;;;9.18;3.45;;;4.60;96.80;;;;;;7406971;19;20319;-75
2023/01/24 05:04:23;;;;;;;6.60;3.30;;;4.30;97.00;;;;;;7406820;19;19919;-74
2023/01/24 05:06:49;;;;;;;7.40;3.28;;;4.20;98.40;;;;;;7410960;19;20243;-75
2023/01/24 05:09:15;;;;;;;8.65;4.28;;;4.10;98.60;;;;;;7408782;19;19923;-73
2023/01/24 05:11:41;;;;;;;7.88;3.60;;;4.00;99.40;;;;;;7375731;19;19915;-73
2023/01/24 05:14:09;;;;;;;7.68;3.88;;;3.80;99.90;;;;;;7408502;19;19915;-73
2023/01/24 05:16:35;;;;;;;10.80;3.97;;;3.80;99.90;;;;;;7409881;19;19925;-74
2023/01/24 05:19:01;;;;;;;7.53;3.30;;;3.80;99.90;;;;;;7409779;19;19914;-75
2023/01/24 05:21:27;;;;;;;7.90;3.92;;;3.80;99.90;;;;;;7408326;19;19939;-73
2023/01/24 05:23:53;;;;;;;9.00;3.95;;;3.60;99.90;;;;;;7410855;19;19914;-74
2023/01/24 05:26:24;;;;;;;7.85;3.72;;;3.60;99.90;;;;;;7406650;19;19922;-74
2023/01/24 05:28:50;;;;;;;7.53;3.70;;;3.60;99.90;;;;;;7408340;19;19978;-73
2023/01/24 05:31:17;;;;;;;7.35;3.25;;;3.50;99.90;;;;;;7408740;19;19926;-73
2023/01/24 05:33:43;;;;;;;6.70;3.13;;;3.60;99.90;;;;;;7408903;19;20303;-74
2023/01/24 05:36:12;;;;;;;11.05;4.05;;;3.60;99.90;;;;;;7407877;19;19923;-74
2023/01/24 05:38:38;;;;;;;7.10;3.60;;;3.60;99.90;;;;;;7408481;19;20243;-74
2023/01/24 05:41:07;;;;;;;13.05;4.13;;;3.60;99.90;;;;;;7401939;19;19922;-75
2023/01/24 05:43:34;;;;;;;7.85;4.10;;;3.70;99.90;;;;;;7404212;19;19926;-74
2023/01/24 05:46:05;;;;;;;7.97;3.80;;;3.80;99.90;;;;;;7409034;19;19911;-74
2023/01/24 05:48:31;;;;;;;7.88;3.67;;;3.90;99.90;;;;;;7407976;19;20488;-75
2023/01/24 05:51:06;;;;;;;9.75;4.45;;;3.90;99.90;;;;;;7406668;19;19934;-76
2023/01/24 05:53:35;;;;;;;8.85;3.72;;;3.90;99.90;;;;;;7400975;19;19942;-75
2023/01/24 05:56:04;;;;;;;7.47;3.78;;;4.00;99.90;;;;;;7406173;19;19950;-74
2023/01/24 05:58:33;;;;;;;7.78;4.05;;;4.00;99.90;;;;;;7406797;19;19985;-75
2023/01/24 06:00:59;;;;;;;7.28;4.00;;;4.00;99.90;;;;;;7406073;19;19926;-74
2023/01/24 06:03:25;;;;;;;7.93;3.70;;;4.10;99.90;;;;;;7405246;19;20266;-75
2023/01/24 06:05:53;;;;;;;8.18;4.15;;;4.00;99.90;;;;;;7408114;19;20297;-74
2023/01/24 06:08:19;;;;;;;7.90;4.03;;;3.80;99.90;;;;;;7406200;19;19918;-74
2023/01/24 06:10:46;;;;;;;7.38;3.72;;;3.70;99.90;;;;;;7406469;19;19928;-74
2023/01/24 06:13:12;;;;;;;10.10;3.88;;;3.80;99.90;;;;;;7404895;19;19922;-75
2023/01/24 06:15:39;;;;;;;7.55;3.67;;;3.50;99.90;;;;;;7404623;19;19938;-73
2023/01/24 06:18:07;;;;;;;7.07;3.72;;;3.50;99.90;;;;;;7405476;19;19929;-74
2023/01/24 06:20:33;;;;;;;8.23;4.20;;;3.50;99.90;;;;;;7408718;19;19921;-74
2023/01/24 06:23:16;;;;;;;7.38;3.72;;;3.40;99.90;;;;;;7408789;19;19982;-74
2023/01/24 06:25:42;;;;;;;7.40;3.50;;;3.40;99.90;;;;;;7408205;19;19915;-74
2023/01/24 06:28:09;;;;;;;8.63;3.90;;;3.40;99.90;;;;;;7403991;19;19927;-75
2023/01/24 06:30:38;;;;;;;9.38;4.10;;;3.40;99.90;;;;;;7405901;19;19915;-75
2023/01/24 06:33:15;;;;;;;7.70;4.05;;;3.40;99.90;;;;;;7406703;19;19941;-74
2023/01/24 06:36:08;;;;;;;9.00;4.03;;;3.50;99.90;;;;;;7409286;19;19919;-74
2023/01/24 06:38:34;;;;;;;8.82;3.50;;;3.70;99.90;;;;;;7409714;19;19946;-75
2023/01/24 06:41:01;;;;;;;8.07;3.65;;;3.80;99.90;;;;;;7412226;19;20472;-74
2023/01/24 06:43:29;;;;;;;8.00;3.67;;;3.80;99.90;;;;;;7412289;19;19910;-75
2023/01/24 06:45:55;;;;;;;8.18;3.22;;;4.00;99.90;;;;;;7403263;19;20278;-74
2023/01/24 06:48:21;;;;;;;7.65;3.80;;;4.00;99.90;;;;;;7375340;19;20704;-75
2023/01/24 06:50:47;;;;;;;7.88;3.33;;;4.00;99.90;;;;;;7405836;19;19919;-75
2023/01/24 06:53:14;;;;;;;9.73;4.18;;;3.90;99.90;;;;;;7404878;19;19927;-74
2023/01/24 06:55:44;;;;;;;10.23;3.53;;;3.90;99.50;;;;;;7408693;19;19919;-74
2023/01/24 06:58:10;;;;;;;6.60;3.13;;;3.90;98.70;;;;;;7406323;19;19923;-75
2023/01/24 07:00:36;;;;;;;7.80;3.22;;;4.00;98.60;;;;;;7408782;19;19930;-74
2023/01/24 07:03:07;;;;;;;6.88;3.20;;;4.10;98.40;;;;;;7405022;19;19938;-71
2023/01/24 07:05:36;;;;;;;6.97;3.75;;;4.20;97.80;;;;;;7404836;19;19926;-72
2023/01/24 07:08:02;;;;;;;8.70;3.90;;;4.30;97.40;;;;;;7404425;19;19926;-72
2023/01/24 07:10:28;;;;;;;8.30;3.80;;;4.40;96.90;;;;;;7406760;19;19926;-72
2023/01/24 07:12:55;;;;;;;7.70;2.90;;;4.40;96.00;;;;;;7405635;19;20262;-74
2023/01/24 07:15:20;;;;;;;7.38;3.63;;;4.50;96.00;;;;;;7404370;19;19922;-73
2023/01/24 07:17:46;;;;;;;6.45;3.20;;;4.40;95.50;;;;;;7404156;19;19936;-72
2023/01/24 07:20:13;;;;;;;7.55;3.28;;;4.50;95.40;;;;;;7371082;19;19946;-72
2023/01/24 07:22:40;;;;;;;7.18;3.00;;;4.50;95.40;;;;;;7403488;19;19926;-72
2023/01/24 07:25:13;;;;;;;5.90;2.70;;;4.50;94.90;;;;;;7402871;19;19923;-73
2023/01/24 07:27:40;;;;;;;6.00;3.03;;;4.60;94.60;;;;;;7403124;19;19978;-73
2023/01/24 07:30:06;;;;;;;5.40;2.72;;;4.50;94.60;;;;;;7402263;19;19927;-72
2023/01/24 07:32:32;;;;;;;7.25;3.38;;;4.50;94.50;;;;;;7404121;19;19914;-72
2023/01/24 07:34:58;;;;;;;6.65;3.45;;;4.60;94.60;;;;;;7403346;19;20339;-71
2023/01/24 07:37:24;;;;;;;9.18;4.15;;;4.50;94.10;;;;;;7402694;19;20310;-72
2023/01/24 07:39:49;;;;;;;5.60;2.50;;;4.40;94.30;;;;;;7397057;19;19943;-71
2023/01/24 07:42:15;;;;;;;6.40;2.70;;;4.40;94.30;;;;;;7402372;19;19914;-72
2023/01/24 07:44:41;;;;;;;7.45;3.28;;;4.40;94.40;;;;;;7402605;19;19921;-74
2023/01/24 07:47:06;;;;;;;10.68;4.25;;;4.50;94.20;;;;;;7397441;19;19915;-73
2023/01/24 07:49:32;;;;;;;7.07;3.40;;;4.60;94.30;;;;;;7405502;19;19915;-72
2023/01/24 07:51:58;;;;;;;8.13;3.63;;;4.70;93.80;;;;;;7405088;19;19915;-72
2023/01/24 07:54:24;;;;;;;7.57;3.42;;;4.80;94.00;;;;;;7401503;19;19943;-74
2023/01/24 07:56:51;;;;;;;9.40;3.60;;;4.80;93.70;;;;;;7351127;19;19918;-74
2023/01/24 07:59:17;;;;;;;8.10;4.20;;;4.90;93.50;;;;;;7400266;19;19919;-73
2023/01/24 08:01:42;;;;;;;9.23;3.42;;;5.00;93.40;;;;;;7403873;19;19930;-76
2023/01/24 08:04:09;;;;;;;8.25;3.60;;;5.20;93.40;;;;;;7369566;19;19919;-71
2023/01/24 08:06:35;;;;;;;6.55;3.10;;;5.20;93.30;;;;;;7405506;19;19914;-72
2023/01/24 08:09:01;;;;;;;10.48;3.80;;;5.30;93.20;;;;;;7408417;19;19982;-72
2023/01/24 08:11:27;;;;;;;8.50;3.88;;;5.50;93.10;;;;;;7409119;19;19920;-72
2023/01/24 08:13:54;;;;;;;6.90;3.63;;;5.50;93.00;;;;;;7409181;19;19986;-75
2023/01/24 08:16:23;;;;;;;8.73;4.20;;;5.60;92.80;;;;;;7405875;19;19957;-73
2023/01/24 08:18:49;;;;;;;6.38;3.30;;;5.70;92.70;;;;;;7403982;19;19914;-73
2023/01/24 08:21:15;;;;;;;7.38;3.50;;;5.80;92.50;;;;;;7407119;19;20254;-72
2023/01/24 08:23:41;;;;;;;6.78;3.55;;;5.80;92.30;;;;;;7384786;19;19916;-72
2023/01/24 08:26:06;;;;;;;6.03;3.15;;;5.60;92.10;;;;;;7401006;19;20285;-72
2023/01/24 08:28:33;;;;;;;9.27;4.20;;;5.50;92.00;;;;;;7406917;19;19915;-73
2023/01/24 08:31:00;;;;;;;7.88;3.95;;;5.60;92.20;;;;;;7406631;19;19907;-72
2023/01/24 08:33:26;;;;;;;8.68;4.25;;;5.90;92.10;;;;;;7407831;19;19943;-73
2023/01/24 08:35:52;;;;;;;7.70;3.72;;;6.60;91.30;;;;;;7386423;19;19915;-73
2023/01/24 08:38:19;;;;;;;10.55;4.70;;;6.80;90.80;;;;;;7405547;19;19942;-74
2023/01/24 08:40:44;;;;;;;10.85;5.65;;;7.00;90.70;;;;;;7408653;19;20273;-72
2023/01/24 08:43:10;;;;;;;8.40;3.92;;;7.40;90.60;;;;;;7408140;19;19923;-72
2023/01/24 08:45:37;;;;;;;7.18;3.55;;;8.10;89.20;;;;;;7375595;19;20363;-73
2023/01/24 08:48:03;;;;;;;7.88;3.55;;;8.20;88.80;;;;;;7403974;19;19922;-72
2023/01/24 08:50:29;;;;;;;7.60;4.10;;;7.60;88.50;;;;;;7407734;19;19915;-73
2023/01/24 08:52:56;;;;;;;10.02;3.88;;;7.30;89.70;;;;;;7407515;19;19934;-73
2023/01/24 08:55:23;;;;;;;8.07;3.92;;;7.20;90.20;;;;;;7409007;19;19986;-73
2023/01/24 08:57:49;;;;;;;12.73;4.35;;;7.50;89.80;;;;;;7390742;19;19910;-75
2023/01/24 09:00:15;;;;;;;11.20;4.45;;;8.00;89.00;;;;;;7372705;19;19997;-73
2023/01/24 09:02:41;;;;;;;7.80;3.63;;;8.10;87.90;;;;;;7406977;19;19923;-73
2023/01/24 09:05:08;;;;;;;10.95;3.65;;;8.30;88.50;;;;;;7372830;19;20030;-73
2023/01/24 09:07:36;;;;;;;8.77;4.25;;;8.80;86.90;;;;;;7407651;19;19923;-72
2023/01/24 09:10:03;;;;;;;8.82;4.28;;;8.60;87.00;;;;;;7405999;19;19918;-73
2023/01/24 09:12:31;;;;;;;8.05;3.65;;;8.60;87.30;;;;;;7386816;19;19941;-73
2023/01/24 09:14:58;;;;;;;9.50;4.25;;;8.50;87.00;;;;;;7401378;19;19918;-73
2023/01/24 09:17:24;;;;;;;8.98;3.65;;;8.60;87.00;;;;;;7392697;19;19933;-77
2023/01/24 09:19:51;;;;;;;7.30;4.05;;;8.40;86.90;;;;;;7402884;19;19938;-74
2023/01/24 09:22:16;;;;;;;;;;;8.50;86.70;;;;;;7400747;19;19945;-75
2023/01/24 09:24:43;;;;;;;8.75;4.18;;;8.60;86.80;;;;;;7399468;19;19918;-72
2023/01/24 09:27:10;;;;;;;;;;;8.70;86.60;;;;;;7395537;19;20235;-73
2023/01/24 09:29:36;;;;;;;7.97;4.05;;;8.70;85.90;;;;;;7397669;19;19911;-71
2023/01/24 09:32:02;;;;;;;7.72;4.15;;;8.60;85.80;;;;;;7405608;19;19919;-73
2023/01/24 09:34:29;;;;;;;6.78;3.72;;;8.60;86.20;;;;;;7400564;19;20248;-75
2023/01/24 09:36:55;;;;;;;8.13;3.80;;;8.70;86.50;;;;;;7399812;19;19925;-73
2023/01/24 09:39:21;;;;;;;9.05;3.83;;;8.70;86.40;;;;;;7403667;19;19919;-72
2023/01/24 09:42:03;;;;;;;8.30;4.32;;;8.50;86.10;;;;;;7407249;19;19926;-72
2023/01/24 09:44:56;;;;;;;9.40;4.95;;;8.30;86.50;;;;;;7395778;19;20710;-74
2023/01/24 09:47:43;;;;;;;9.48;4.47;;;8.20;87.00;;;;;;7383401;19;24929;-73
2023/01/24 09:50:24;;;;;;;9.75;4.95;;;7.90;87.10;;;;;;7341588;19;19915;-72
2023/01/24 09:52:54;;;;;;;10.13;4.68;;;7.70;87.40;;;;;;7333320;19;19934;-73
2023/01/24 09:55:23;;;;;;;8.57;4.03;;;7.60;88.10;;;;;;7392088;19;19919;-73
2023/01/24 09:58:01;;;;;;;13.55;4.43;;;7.50;88.50;;;;;;7399341;19;19923;-72
2023/01/24 10:00:39;;;;;;;9.10;4.40;;;7.50;88.10;;;;;;7399194;19;20338;-73
2023/01/24 10:03:19;;;;;;;8.30;3.63;;;7.40;88.30;;;;;;7396069;19;19918;-72
2023/01/24 10:05:50;;;;;;;8.68;4.60;;;7.30;89.80;;;;;;7395667;19;19922;-73
2023/01/24 10:08:15;;;;;;;6.68;3.53;;;7.30;91.00;;;;;;7392739;19;19931;-72
2023/01/24 10:10:51;;;;;;;9.13;4.22;;;7.30;91.60;;;;;;7396041;19;20249;-73
2023/01/24 10:13:26;;;;;;;9.55;4.03;;;7.30;92.30;;;;;;7387266;19;19970;-72
2023/01/24 10:16:22;;;;;;;8.90;4.00;;;7.40;93.00;;;;;;7398678;19;19911;-73
2023/01/24 10:18:56;;;;;;;7.18;3.53;;;7.40;92.40;;;;;;7387407;19;19922;-74
2023/01/24 10:21:34;;;;;;;8.27;3.80;;;7.50;93.30;;;;;;7403055;19;19945;-74
2023/01/24 10:24:04;;;;;;;8.27;3.95;;;7.70;92.90;;;;;;7397349;19;19926;-73
2023/01/24 10:26:49;;;;;;;17.50;8.40;;;7.80;92.80;;;;;;7388733;19;19942;-72
2023/01/24 10:29:22;;;;;;;9.02;4.18;;;7.70;93.20;;;;;;7390264;19;19930;-73
2023/01/24 10:32:14;;;;;;;8.68;3.95;;;7.60;93.30;;;;;;7399832;19;19943;-73
2023/01/24 10:34:45;;;;;;;9.00;3.58;;;7.30;94.20;;;;;;7400991;19;20627;-72
2023/01/24 10:37:20;;;;;;;8.52;3.40;;;7.10;94.80;;;;;;7398909;19;19932;-74
2023/01/24 10:39:46;;;;;;;10.68;4.57;;;7.00;94.90;;;;;;7387716;19;19917;-73
2023/01/24 10:42:29;;;;;;;8.50;3.63;;;6.80;95.50;;;;;;7390191;19;20887;-73
2023/01/24 10:44:59;;;;;;;6.72;3.25;;;6.70;96.20;;;;;;7399027;19;19927;-74
2023/01/24 10:47:46;;;;;;;8.80;4.15;;;6.70;96.30;;;;;;7392881;19;19934;-73
2023/01/24 10:50:15;;;;;;;9.43;4.78;;;6.80;96.90;;;;;;7396990;19;19930;-74
2023/01/24 10:52:42;;;;;;;7.68;3.10;;;6.90;97.40;;;;;;7380718;19;19926;-73
2023/01/24 10:55:29;;;;;;;7.05;3.65;;;7.00;97.40;;;;;;7394676;19;20371;-72
2023/01/24 10:57:55;;;;;;;7.25;4.00;;;7.00;96.90;;;;;;7397690;19;19919;-75
2023/01/24 11:00:27;;;;;;;7.70;3.50;;;7.20;97.00;;;;;;7387394;19;20358;-73
2023/01/24 11:02:56;;;;;;;7.00;3.50;;;7.30;97.00;;;;;;7392496;19;19911;-73
2023/01/24 11:05:23;;;;;;;9.00;3.38;;;7.30;96.80;;;;;;7394502;19;20367;-73
2023/01/24 11:07:53;;;;;;;8.38;4.03;;;7.00;97.20;;;;;;7364391;19;20018;-73
2023/01/24 11:10:23;;;;;;;8.18;4.43;;;6.70;97.30;;;;;;7400872;19;20326;-74
2023/01/24 11:12:55;;;;;;;9.77;4.60;;;6.50;97.40;;;;;;7398621;19;19915;-73
2023/01/24 11:15:26;;;;;;;7.50;3.83;;;6.30;97.90;;;;;;7398202;19;25175;-73
2023/01/24 11:17:59;;;;;;;11.32;4.90;;;6.10;98.60;;;;;;7401331;19;19925;-73
2023/01/24 11:20:35;;;;;;;11.85;4.90;;;6.10;99.50;;;;;;7395481;19;19915;-74
2023/01/24 11:23:17;;;;;;;8.73;4.15;;;5.80;99.40;;;;;;7394901;19;19918;-75
2023/01/24 11:25:54;;;;;;;9.15;4.65;;;5.80;99.90;;;;;;7402249;19;20261;-73
2023/01/24 11:28:28;;;;;;;11.73;4.32;;;5.70;99.90;;;;;;7400469;19;19919;-73
2023/01/24 11:30:56;;;;;;;9.73;4.90;;;5.60;99.90;;;;;;7402833;19;19922;-74
2023/01/24 11:33:34;;;;;;;12.15;5.40;;;5.50;99.90;;;;;;7394542;19;19994;-72
2023/01/24 11:36:08;;;;;;;10.02;5.07;;;5.50;99.90;;;;;;7405967;19;19917;-76
2023/01/24 11:38:43;;;;;;;10.13;5.13;;;5.50;99.90;;;;;;7401252;19;19910;-74
2023/01/24 11:41:09;;;;;;;8.60;4.47;;;5.50;99.90;;;;;;7393521;19;19935;-75
2023/01/24 11:43:51;;;;;;;9.48;4.45;;;5.50;99.90;;;;;;7387106;19;19910;-75
2023/01/24 11:46:24;;;;;;;7.90;4.28;;;5.60;99.90;;;;;;7394159;19;20568;-75
2023/01/24 11:48:56;;;;;;;9.18;4.38;;;5.60;99.90;;;;;;7405683;19;20002;-75
2023/01/24 11:51:58;;;;;;;8.15;4.03;;;5.80;99.90;;;;;;7395152;19;22293;-73
2023/01/24 11:54:36;;;;;;;9.38;4.38;;;5.70;99.90;;;;;;7394551;19;19958;-73
2023/01/24 11:57:09;;;;;;;6.55;3.60;;;5.70;99.90;;;;;;7398708;19;19942;-74
2023/01/24 12:00:06;;;;;;;7.47;4.00;;;5.50;99.90;;;;;;7400704;19;19907;-73
2023/01/24 12:02:48;;;;;;;8.13;3.88;;;5.30;99.90;;;;;;7392280;19;20346;-73
2023/01/24 12:05:16;;;;;;;7.80;3.95;;;5.20;99.90;;;;;;7400972;19;19906;-74
2023/01/24 12:08:03;;;;;;;8.80;4.60;;;5.40;99.90;;;;;;7350600;19;19954;-74
2023/01/24 12:10:58;;;;;;;9.00;4.05;;;5.50;99.90;;;;;;7400435;19;19922;-72
2023/01/24 12:13:30;;;;;;;8.18;4.20;;;5.60;99.90;;;;;;7397834;19;19907;-72
2023/01/24 12:16:07;;;;;;;10.30;4.70;;;5.60;99.90;;;;;;7404571;19;19967;-74
2023/01/24 12:18:47;;;;;;;11.13;4.93;;;5.70;99.90;;;;;;7401541;19;19930;-74
2023/01/24 12:21:13;;;;;;;9.90;4.53;;;5.50;99.90;;;;;;7401695;19;19915;-72
2023/01/24 12:23:55;;;;;;;12.68;5.85;;;5.50;99.90;;;;;;7403949;19;19911;-71
2023/01/24 12:26:30;;;;;;;9.95;5.13;;;5.50;99.90;;;;;;7402052;19;20261;-74
2023/01/24 12:29:08;;;;;;;9.35;4.88;;;5.40;99.90;;;;;;7401440;19;19923;-72
2023/01/24 12:32:10;;;;;;;10.40;5.40;;;5.60;99.90;;;;;;7394097;19;19915;-73
2023/01/24 12:34:54;;;;;;;12.85;5.25;;;5.40;99.90;;;;;;7387924;19;19938;-72
2023/01/24 12:37:22;;;;;;;13.20;5.15;;;5.50;99.90;;;;;;7396711;19;19915;-74
2023/01/24 12:40:12;;;;;;;10.50;5.22;;;5.40;99.90;;;;;;7398828;19;19918;-73
2023/01/24 12:43:06;;;;;;;10.80;5.05;;;5.40;99.90;;;;;;7394880;19;19907;-72
2023/01/24 12:45:44;;;;;;;11.32;5.85;;;5.40;99.90;;;;;;7393635;19;19911;-73
2023/01/24 12:48:28;;;;;;;14.27;5.22;;;5.30;99.90;;;;;;7398258;19;20251;-72
2023/01/24 12:51:04;;;;;;;10.05;5.35;;;5.30;99.90;;;;;;7396987;19;20326;-72
2023/01/24 12:53:44;;;;;;;13.27;5.88;;;5.30;99.90;;;;;;7393319;19;19910;-73
2023/01/24 12:56:47;;;;;;;12.10;5.93;;;5.30;99.90;;;;;;7386910;19;19921;-75
2023/01/24 12:59:22;;;;;;;11.15;4.45;;;5.30;99.90;;;;;;7378590;19;19921;-75
2023/01/24 13:02:06;;;;;;;8.52;4.70;;;5.30;99.90;;;;;;7375306;19;19932;-72
2023/01/24 13:04:58;;;;;;;9.95;4.82;;;5.40;99.90;;;;;;7383483;19;19915;-73
2023/01/24 13:08:05;;;;;;;10.80;4.70;;;5.70;99.90;;;;;;7400586;19;19938;-74
2023/01/24 13:11:16;;;;;;;11.48;5.47;;;5.70;99.90;;;;;;7400467;19;20276;-74
2023/01/24 13:13:56;;;;;;;14.90;5.78;;;5.70;99.90;;;;;;7403144;19;19922;-73
2023/01/24 13:16:48;;;;;;;9.25;4.95;;;5.80;99.90;;;;;;7381440;19;19931;-72
2023/01/24 13:19:38;;;;;;;7.65;4.25;;;5.90;99.90;;;;;;7400738;19;19914;-73
2023/01/24 13:22:23;;;;;;;9.65;4.03;;;5.90;99.90;;;;;;7404376;19;19958;-73
2023/01/24 13:25:28;;;;;;;9.55;4.38;;;5.90;99.90;;;;;;7406940;19;19953;-73
2023/01/24 13:28:11;;;;;;;6.82;3.72;;;6.20;99.90;;;;;;7405402;19;19939;-72
2023/01/24 13:30:41;;;;;;;9.50;4.32;;;6.10;99.90;;;;;;7385912;19;19925;-75
2023/01/24 13:33:15;;;;;;;7.63;4.28;;;5.90;99.90;;;;;;7405814;19;19939;-75
2023/01/24 13:35:49;;;;;;;8.13;4.38;;;5.90;99.90;;;;;;7405768;19;19978;-73
2023/01/24 13:38:24;;;;;;;8.05;4.03;;;5.90;99.90;;;;;;7388715;19;19923;-74
2023/01/24 13:41:06;;;;;;;5.47;2.42;;;6.00;99.90;;;;;;7405778;19;19914;-74
2023/01/24 13:43:57;;;;;;;7.80;3.38;;;6.10;99.90;;;;;;7400712;19;20287;-73
2023/01/24 13:46:43;;;;;;;7.70;4.13;;;6.20;99.90;;;;;;7404789;19;19951;-72
2023/01/24 13:49:27;;;;;;;7.45;3.70;;;6.40;99.90;;;;;;7400484;19;19919;-73
2023/01/24 13:51:54;;;;;;;7.38;4.00;;;6.40;99.90;;;;;;7405405;19;19921;-73
2023/01/24 13:54:39;;;;;;;7.50;3.70;;;6.50;99.90;;;;;;7403145;19;19918;-73